ZSPD/PVG METAR and TAF weather

Enter ICAO airport designator
Station Type Date Time Source
ZSPD METAR 2018/12/15 23:30 UTC NOAA

ZSPD 152330Z 29007MPS 9999 BKN015 OVC040 07/05 Q1025 NOSIG


Station Type Date Time Source
ZSPD Decoded METAR 2018/12/15 23:30 UTC NOAA

Shanghai / Pudong, China (ZSPD) 31-07N 121-46E
Dec 15, 2018 - 06:30 PM EST / 2018.12.15 2330 UTC
Wind: from the WNW (290 degrees) at 16 MPH (14 KT):0
Visibility: greater than 7 mile(s):0
Sky conditions: overcast
Temperature: 44 F (7 C)
Dew Point: 41 F (5 C)
Relative Humidity: 87%
Pressure (altimeter): 30.27 in. Hg (1025 hPa)
ob: ZSPD 152330Z 29007MPS 9999 BKN015 OVC040 07/05 Q1025 NOSIG
cycle: 23

Station Type Date Time Source
ZSPD TAF 2018/12/15 18:03 UTC NOAA

TAF ZSPD 151519Z 1518/1618 14003MPS 3000 BR BKN008 TX10/1606Z TN07/1520Z
BECMG 1520/1521 31005MPS BKN010


Example: see airport list